Newport, ME

5:52 PM EST on March 06, 2015 (GMT -0500)
Downtown Newport | Change Station
CLOSE
Current Station
Personal Weather Station
Location: Newport, ME
Elevation: 227 ft
Nearby Weather Stations

Elev 227 ft 44.84 °N, 69.28 °W | Updated 7 seconds ago

Clear
Clear
15.8 °F
Feels Like 16 °F
N
2.0
Wind Variable Wind from SW
Gusts 4.0 mph

Today
High -- | Low -- °F
--% Chance of Precip.
Yesterday
High -- | Low -- °F
Precip. -- in
6:06 AM 5:31 PM
Full, 99% visible
Pressure 30.32 in
Visibility 10.0 miles
Clouds Clear
Windchill 16 °F
Dew Point 4 °F
Humidity 50%
Rainfall in
Snow Depth Not available.
UV 0 out of 12
Pollen .30 out of 12
Air Quality Not available.
Flu Activity Not available.
METAR KBGR 062153Z 18007KT 10SM CLR M07/M17 A3030 RMK AO2 SLP268 T10671172

More Conditions Fewer Conditions

Pressure 30.32 in
Visibility 10.0 miles
Clouds Clear
Windchill 16 °F
Dew Point 4 °F
Humidity 50%
Rainfall in
Snow Depth Not available.
UV 0 out of 12
Pollen .30 out of 12
Air Quality Not available.
Flu Activity Not available.
METAR KBGR 062153Z 18007KT 10SM CLR M07/M17 A3030 RMK AO2 SLP268 T10671172

More Conditions Fewer Conditions

10-Day Weather Forecast

Almanac

Astronomy

Mar. 06, 2015 Rise Set
Actual Time
Civil Twilight
Nautical Twilight
Astronomical Twilight
Moon
Length of Visible Light
Length of Day
Tomorrow will be .
, % of the Moon is Illuminated

Today's Extremes

State Highs State Lows

Community

WunderPhotos

Upload Photos

1,803,431 photos uploaded!

WunderBlogs® & News

Nearby

Air Quality

  Air Quality AQ Index Pollutant
Not available.

Snow Depth

Station Depth Elevation

Earthquake Activity

City Distance Mag. Time & Date
Minimum magnitude displayed is 2.5.

Coastal Water Temperatures

Place Temperature

Nearby Weather Stations